createdAt,value
2022-08-16T00:01:24.812Z,91137.19
2022-08-16T00:03:54.023Z,91128.66
2022-08-16T00:06:22.717Z,91122.25
2022-08-16T00:08:49.946Z,91123.19
2022-08-16T00:11:18.049Z,91115.72
2022-08-16T00:13:53.687Z,91106.06
2022-08-16T00:17:05.594Z,91112.88
2022-08-16T00:19:25.036Z,91108.56
2022-08-16T00:22:01.669Z,91109.25
2022-08-16T00:24:34.572Z,91136.25
2022-08-16T00:27:03.577Z,91133.94
2022-08-16T00:29:30.810Z,91129.81
2022-08-16T00:32:01.300Z,91142.22
2022-08-16T00:34:43.465Z,91147.28
2022-08-16T00:37:21.146Z,91138.69
2022-08-16T00:39:58.180Z,91155.94
2022-08-16T00:42:32.294Z,91157.09
2022-08-16T00:45:09.344Z,91149.13
2022-08-16T00:47:48.862Z,91142.81
2022-08-16T00:50:20.489Z,91150.69
2022-08-16T00:52:51.052Z,91157.59
2022-08-16T00:55:22.083Z,91148.50
2022-08-16T00:57:59.805Z,91141.78
2022-08-16T01:00:31.288Z,91136.50
2022-08-16T01:03:02.875Z,91129.00
2022-08-16T01:05:30.641Z,91137.22
2022-08-16T01:08:00.114Z,91149.31
2022-08-16T01:10:33.214Z,91147.06
2022-08-16T01:13:22.673Z,91145.22
2022-08-16T01:16:13.183Z,91146.00
2022-08-16T01:19:05.468Z,91142.72
2022-08-16T01:21:47.817Z,91151.44
2022-08-16T01:24:51.952Z,91150.28
2022-08-16T01:27:27.928Z,91149.56
2022-08-16T01:30:20.073Z,91136.75
2022-08-16T01:33:01.304Z,91138.59
2022-08-16T01:35:52.510Z,91144.56
2022-08-16T01:38:25.718Z,91149.94
2022-08-16T01:41:01.854Z,91148.78
2022-08-16T01:43:31.356Z,91154.53
2022-08-16T01:46:31.210Z,91149.06
2022-08-16T01:48:48.811Z,91154.69
2022-08-16T01:51:18.522Z,91156.69
2022-08-16T01:53:55.315Z,91151.44
2022-08-16T01:56:24.598Z,91154.44
2022-08-16T01:58:54.935Z,91146.91
2022-08-16T02:01:23.076Z,91146.91
2022-08-16T02:03:53.201Z,91150.72
2022-08-16T02:06:34.726Z,91150.31
2022-08-16T02:09:06.362Z,91157.44
2022-08-16T02:11:47.720Z,91149.25
2022-08-16T02:14:18.601Z,91160.13
2022-08-16T02:16:49.742Z,91158.31
2022-08-16T02:19:18.595Z,91163.56
2022-08-16T02:22:09.231Z,91163.16
2022-08-16T02:24:42.314Z,91162.50
2022-08-16T02:27:13.363Z,91163.28
2022-08-16T02:29:41.548Z,91169.69
2022-08-16T02:32:50.117Z,91170.09
2022-08-16T02:34:58.472Z,91175.09
2022-08-16T02:37:44.748Z,91169.03
2022-08-16T02:40:13.344Z,91163.72
2022-08-16T02:42:49.693Z,91160.72
2022-08-16T02:45:20.439Z,91160.72
2022-08-16T02:48:00.644Z,91162.94
2022-08-16T02:50:53.976Z,91158.47
2022-08-16T02:53:27.232Z,91162.25
2022-08-16T02:55:54.323Z,91166.84
2022-08-16T02:58:25.005Z,91173.94
2022-08-16T03:00:57.833Z,91176.16
2022-08-16T03:03:26.854Z,91175.84
2022-08-16T03:06:41.376Z,91185.22
2022-08-16T03:09:01.773Z,91186.00
2022-08-16T03:11:35.600Z,91184.81
2022-08-16T03:14:02.682Z,91190.41
2022-08-16T03:16:39.000Z,91181.78
2022-08-16T03:19:20.993Z,91198.69
2022-08-16T03:21:52.628Z,91198.66
2022-08-16T03:24:29.019Z,91202.75
2022-08-16T03:27:02.783Z,91204.63
2022-08-16T03:29:33.803Z,91217.47
2022-08-16T03:32:02.371Z,91211.38
2022-08-16T03:34:31.175Z,91210.22
2022-08-16T03:36:58.345Z,91210.66
2022-08-16T03:39:25.181Z,91217.38
2022-08-16T03:42:00.018Z,91207.00
2022-08-16T03:44:44.096Z,91219.44
2022-08-16T03:47:18.526Z,91210.72
2022-08-16T03:49:51.796Z,91208.50
2022-08-16T03:52:20.682Z,91223.91
2022-08-16T03:54:53.241Z,91227.22
2022-08-16T03:57:20.647Z,91229.84
2022-08-16T03:59:47.370Z,91226.44
2022-08-16T04:02:22.367Z,91232.44
2022-08-16T04:04:58.553Z,91224.53
2022-08-16T04:07:25.570Z,91222.59
2022-08-16T04:09:52.519Z,91231.22
2022-08-16T04:12:54.536Z,91221.00
2022-08-16T04:15:10.530Z,91226.28
2022-08-16T04:17:40.855Z,91211.91
2022-08-16T04:20:31.440Z,91220.94
2022-08-16T04:22:56.414Z,91212.63
2022-08-16T04:25:28.070Z,91213.34
2022-08-16T04:27:56.972Z,91216.69
2022-08-16T04:30:32.010Z,91223.03
2022-08-16T04:33:02.173Z,91216.56
2022-08-16T04:35:34.324Z,91212.03
2022-08-16T04:38:11.106Z,91225.91
2022-08-16T04:40:48.272Z,91217.53
2022-08-16T04:43:18.614Z,91206.16
2022-08-16T04:45:46.380Z,91208.31
2022-08-16T04:48:22.052Z,91208.31
2022-08-16T04:50:59.363Z,91180.94
2022-08-16T04:53:26.033Z,91195.38
2022-08-16T04:55:53.367Z,91195.31
2022-08-16T04:58:45.254Z,91187.69
2022-08-16T05:01:08.660Z,91194.41
2022-08-16T05:03:35.390Z,91196.06
2022-08-16T05:06:09.503Z,91211.88
2022-08-16T05:08:37.441Z,91210.25
2022-08-16T05:11:08.595Z,91200.56
2022-08-16T05:13:41.429Z,91198.78
2022-08-16T05:16:16.674Z,91183.78
2022-08-16T05:18:47.965Z,91208.44
2022-08-16T05:21:14.968Z,91198.75
2022-08-16T05:23:44.394Z,91206.72
2022-08-16T05:26:20.422Z,91192.78
2022-08-16T05:28:55.196Z,91195.16
2022-08-16T05:31:24.126Z,91190.13
2022-08-16T05:33:57.672Z,91184.47
2022-08-16T05:36:24.924Z,91193.38
2022-08-16T05:39:05.835Z,91174.38
2022-08-16T05:41:33.126Z,91181.66
2022-08-16T05:44:22.904Z,91168.88
2022-08-16T05:47:00.822Z,91162.63
2022-08-16T05:49:39.471Z,91157.28
2022-08-16T05:52:11.598Z,91165.84
2022-08-16T05:54:46.606Z,91163.34
2022-08-16T05:57:13.910Z,91167.59
2022-08-16T05:59:41.867Z,91174.09
2022-08-16T06:02:08.627Z,91168.84
2022-08-16T06:04:37.585Z,91173.59
2022-08-16T06:07:08.800Z,91167.72
2022-08-16T06:09:43.722Z,91169.50
2022-08-16T06:12:26.804Z,91168.22
2022-08-16T06:14:59.534Z,91160.91
2022-08-16T06:17:42.363Z,91152.13
2022-08-16T06:20:23.132Z,91142.69
2022-08-16T06:22:57.523Z,91150.94
2022-08-16T06:25:35.993Z,91149.97
2022-08-16T06:28:09.485Z,91141.94
2022-08-16T06:30:44.056Z,91141.16
2022-08-16T06:33:22.307Z,91146.50
2022-08-16T06:35:54.652Z,91145.41
2022-08-16T06:38:33.245Z,91142.22
2022-08-16T06:41:13.454Z,91132.31
2022-08-16T06:43:41.785Z,91137.06
2022-08-16T06:46:21.965Z,91146.31
2022-08-16T06:48:51.767Z,91144.75
2022-08-16T06:51:18.729Z,91143.34
2022-08-16T06:53:46.373Z,91138.97
2022-08-16T06:56:23.498Z,91139.56
2022-08-16T06:58:52.421Z,91126.97
2022-08-16T07:01:34.387Z,91133.53
2022-08-16T07:04:11.930Z,91136.28
2022-08-16T07:06:43.726Z,91132.91
2022-08-16T07:09:13.373Z,91126.06
2022-08-16T07:11:47.476Z,91120.03
2022-08-16T07:14:26.405Z,91118.22
2022-08-16T07:16:58.858Z,91121.31
2022-08-16T07:20:01.748Z,91121.91
2022-08-16T07:22:36.751Z,91116.91
2022-08-16T07:25:05.352Z,91108.91
2022-08-16T07:27:37.255Z,91113.22
2022-08-16T07:30:45.980Z,91117.75
2022-08-16T07:32:56.188Z,91106.84
2022-08-16T07:35:23.597Z,91113.19
2022-08-16T07:37:50.271Z,91116.25
2022-08-16T07:40:37.009Z,91105.28
2022-08-16T07:43:07.270Z,91105.22
2022-08-16T07:45:37.885Z,91115.94
2022-08-16T07:48:11.903Z,91116.22
2022-08-16T07:50:55.712Z,91120.78
2022-08-16T07:53:24.642Z,91110.22
2022-08-16T07:55:55.522Z,91108.31
2022-08-16T07:58:33.891Z,91108.31
2022-08-16T08:01:10.612Z,91099.13
2022-08-16T08:03:48.481Z,91104.38
2022-08-16T08:06:21.328Z,91108.03
2022-08-16T08:08:57.165Z,91117.34
2022-08-16T08:11:25.061Z,91104.91
2022-08-16T08:13:57.581Z,91098.84
2022-08-16T08:16:33.132Z,91089.94
2022-08-16T08:19:02.952Z,91098.69
2022-08-16T08:21:58.253Z,91089.47
2022-08-16T08:24:18.745Z,91092.06
2022-08-16T08:26:50.340Z,91096.47
2022-08-16T08:29:22.512Z,91092.34
2022-08-16T08:31:49.927Z,91095.50
2022-08-16T08:34:18.792Z,91097.34
2022-08-16T08:36:45.719Z,91093.19
2022-08-16T08:39:15.639Z,91088.47
2022-08-16T08:41:49.334Z,91090.91
2022-08-16T08:44:28.537Z,91092.28
2022-08-16T08:47:11.063Z,91087.97
2022-08-16T08:49:50.743Z,91091.59
2022-08-16T08:52:34.721Z,91089.78
2022-08-16T08:55:09.184Z,91082.97
2022-08-16T08:57:38.330Z,91096.09
2022-08-16T09:00:07.910Z,91087.53
2022-08-16T09:02:40.416Z,91097.09
2022-08-16T09:05:15.602Z,91079.16
2022-08-16T09:08:00.351Z,91093.94
2022-08-16T09:10:29.481Z,91098.25
2022-08-16T09:12:58.198Z,91067.53
2022-08-16T09:15:32.658Z,91093.50
2022-08-16T09:18:25.417Z,91085.19
2022-08-16T09:21:00.182Z,91082.00
2022-08-16T09:23:36.668Z,91101.31
2022-08-16T09:26:44.907Z,91090.28
2022-08-16T09:29:15.019Z,91081.72
2022-08-16T09:31:43.269Z,91090.16
2022-08-16T09:34:17.162Z,91082.34
2022-08-16T09:36:46.184Z,91082.75
2022-08-16T09:39:16.029Z,91095.84
2022-08-16T09:41:53.231Z,91084.78
2022-08-16T09:45:11.655Z,91092.28
2022-08-16T09:47:11.025Z,91093.41
2022-08-16T09:49:41.152Z,91094.66
2022-08-16T09:52:09.455Z,91084.19
2022-08-16T09:54:38.915Z,91082.00
2022-08-16T09:57:14.849Z,91087.72
2022-08-16T09:59:42.385Z,91075.84
2022-08-16T10:02:26.846Z,91089.94
2022-08-16T10:04:58.580Z,91097.13
2022-08-16T10:07:38.266Z,91098.56
2022-08-16T10:10:18.678Z,91088.25
2022-08-16T10:13:12.647Z,91088.69
2022-08-16T10:15:55.745Z,91088.66
2022-08-16T10:19:00.509Z,91087.69
2022-08-16T10:21:10.269Z,91089.09
2022-08-16T10:23:37.217Z,91077.84
2022-08-16T10:27:18.288Z,91090.38
2022-08-16T10:28:52.352Z,91094.81
2022-08-16T10:31:43.650Z,91081.59
2022-08-16T10:34:30.967Z,91093.06
2022-08-16T10:36:54.203Z,91105.72
2022-08-16T10:39:24.566Z,91109.13
2022-08-16T10:41:51.414Z,91098.75
2022-08-16T10:44:18.214Z,91092.22
2022-08-16T10:46:46.181Z,91079.88
2022-08-16T10:49:18.150Z,91091.03
2022-08-16T10:52:01.846Z,91087.19
2022-08-16T10:54:31.157Z,91085.31
2022-08-16T10:57:00.529Z,91083.53
2022-08-16T10:59:38.944Z,91091.50
2022-08-16T11:02:59.169Z,91106.06
2022-08-16T11:05:14.085Z,91101.41
2022-08-16T11:07:51.497Z,91101.22
2022-08-16T11:13:58.310Z,91102.03
2022-08-16T11:19:05.231Z,91100.06
2022-08-16T11:21:33.717Z,91100.50
2022-08-16T11:24:02.125Z,91098.38
2022-08-16T11:26:29.811Z,91096.84
2022-08-16T11:29:14.503Z,91098.72
2022-08-16T11:31:45.710Z,91091.41
2022-08-16T11:34:20.871Z,91072.81
2022-08-16T11:36:54.006Z,91083.75
2022-08-16T11:39:29.737Z,91087.66
2022-08-16T11:41:57.968Z,91096.44
2022-08-16T11:44:52.957Z,91092.38
2022-08-16T11:47:15.312Z,91085.63
2022-08-16T11:49:42.468Z,91074.41
2022-08-16T11:52:09.355Z,91086.53
2022-08-16T11:54:41.646Z,91078.84
2022-08-16T11:57:12.158Z,91077.88
2022-08-16T11:59:40.261Z,91084.88
2022-08-16T12:02:31.607Z,91076.16
2022-08-16T12:04:55.914Z,91072.72
2022-08-16T12:07:23.514Z,91077.03
2022-08-16T12:09:53.201Z,91069.38
2022-08-16T12:12:21.264Z,91084.28
2022-08-16T12:14:55.878Z,91067.81
2022-08-16T12:17:28.101Z,91086.34
2022-08-16T12:19:58.444Z,91091.00
2022-08-16T12:22:25.362Z,91088.69
2022-08-16T12:24:54.857Z,91080.38
2022-08-16T12:27:24.176Z,91067.84
2022-08-16T12:29:52.840Z,91077.81
2022-08-16T12:32:37.475Z,91089.50
2022-08-16T12:35:08.663Z,91083.50
2022-08-16T12:37:35.624Z,91088.72
2022-08-16T12:40:02.694Z,91083.19
2022-08-16T12:42:35.506Z,91089.63
2022-08-16T12:45:06.044Z,91074.22
2022-08-16T12:47:51.406Z,91066.75
2022-08-16T12:50:20.512Z,91060.72
2022-08-16T12:52:52.943Z,91046.38
2022-08-16T12:55:20.845Z,91056.47
2022-08-16T12:57:58.553Z,91052.75
2022-08-16T13:00:34.032Z,91041.28
2022-08-16T13:03:03.550Z,91039.31
2022-08-16T13:08:03.333Z,91032.47
2022-08-16T13:10:38.152Z,91033.25
2022-08-16T13:13:08.739Z,91040.88
2022-08-16T13:15:55.710Z,91053.63
2022-08-16T13:18:32.678Z,91051.59
2022-08-16T13:21:06.726Z,91076.41
2022-08-16T13:23:35.798Z,91077.53
2022-08-16T13:26:03.436Z,91096.22
2022-08-16T13:28:30.091Z,91089.66
2022-08-16T13:30:58.468Z,91116.06
2022-08-16T13:33:30.555Z,91107.16
2022-08-16T13:36:02.048Z,91105.38
2022-08-16T13:38:31.380Z,91107.31
2022-08-16T13:40:59.799Z,91121.16
2022-08-16T13:43:28.011Z,91126.06
2022-08-16T13:45:56.791Z,91123.03
2022-08-16T13:48:26.058Z,91106.72
2022-08-16T13:51:00.592Z,91112.97
2022-08-16T13:53:30.911Z,91131.84
2022-08-16T13:56:02.532Z,91123.84
2022-08-16T13:58:37.513Z,91129.84
2022-08-16T14:01:18.534Z,91137.44
2022-08-16T14:03:46.852Z,91142.78
2022-08-16T14:06:14.859Z,91141.22
2022-08-16T14:08:43.188Z,91149.69
2022-08-16T14:11:14.854Z,91160.97
2022-08-16T14:13:43.872Z,91160.34
2022-08-16T14:16:12.622Z,91152.00
2022-08-16T14:18:53.139Z,91140.38
2022-08-16T14:21:23.676Z,91148.34
2022-08-16T14:23:52.359Z,91172.72
2022-08-16T14:26:21.539Z,91157.97
2022-08-16T14:28:50.703Z,91147.19
2022-08-16T14:31:18.482Z,91154.13
2022-08-16T14:33:45.993Z,91150.38
2022-08-16T14:36:25.034Z,91144.38
2022-08-16T14:38:56.896Z,91146.31
2022-08-16T14:41:28.945Z,91148.75
2022-08-16T14:43:56.646Z,91135.16
2022-08-16T14:46:24.070Z,91132.50
2022-08-16T14:48:51.103Z,91144.72
2022-08-16T14:51:20.465Z,91142.22
2022-08-16T14:53:52.712Z,91139.31
2022-08-16T14:56:38.563Z,91148.53
2022-08-16T14:59:06.861Z,91142.63
2022-08-16T15:01:57.378Z,91142.88
2022-08-16T15:04:40.519Z,91148.97
2022-08-16T15:07:12.850Z,91145.72
2022-08-16T15:10:00.623Z,91150.47
2022-08-16T15:12:34.004Z,91171.50
2022-08-16T15:15:13.126Z,91163.69
2022-08-16T15:17:53.990Z,91172.38
2022-08-16T15:20:22.574Z,91173.59
2022-08-16T15:22:50.719Z,91182.44
2022-08-16T15:25:41.326Z,91185.84
2022-08-16T15:28:23.600Z,91184.88
2022-08-16T15:31:06.060Z,91179.94
2022-08-16T15:33:35.294Z,91184.69
2022-08-16T15:36:03.001Z,91182.03
2022-08-16T15:38:54.717Z,91187.38
2022-08-16T15:41:42.528Z,91191.22
2022-08-16T15:44:17.967Z,91184.50
2022-08-16T15:46:55.439Z,91200.41
2022-08-16T15:49:38.039Z,91200.75
2022-08-16T15:52:24.795Z,91189.66
2022-08-16T15:54:59.524Z,91170.59
2022-08-16T15:57:28.549Z,91197.97
2022-08-16T16:00:14.777Z,91213.63
2022-08-16T16:02:43.940Z,91218.41
2022-08-16T16:05:10.983Z,91240.97
2022-08-16T16:07:41.041Z,91252.47
2022-08-16T16:10:30.099Z,91255.06
2022-08-16T16:13:04.922Z,91254.22
2022-08-16T16:15:44.987Z,91262.75
2022-08-16T16:18:13.403Z,91259.38
2022-08-16T16:20:43.946Z,91256.69
2022-08-16T16:23:11.434Z,91248.03
2022-08-16T16:25:40.070Z,91244.69
2022-08-16T16:29:06.537Z,91251.66
2022-08-16T16:31:04.982Z,91245.69
2022-08-16T16:33:39.794Z,91235.59
2022-08-16T16:36:07.100Z,91243.06
2022-08-16T16:38:35.333Z,91242.34
2022-08-16T16:41:09.927Z,91248.28
2022-08-16T16:43:43.922Z,91260.72
2022-08-16T16:46:32.767Z,91260.84
2022-08-16T16:49:04.105Z,91257.16
2022-08-16T16:51:32.588Z,91246.47
2022-08-16T16:54:08.646Z,91235.66
2022-08-16T16:56:37.771Z,91230.22
2022-08-16T16:59:10.303Z,91244.31
2022-08-16T17:02:00.529Z,91248.97
2022-08-16T17:04:31.828Z,91256.06
2022-08-16T17:07:02.732Z,91253.66
2022-08-16T17:09:30.066Z,91264.13
2022-08-16T17:11:57.260Z,91260.75
2022-08-16T17:14:33.340Z,91253.75
2022-08-16T17:17:11.709Z,91261.53
2022-08-16T17:19:45.617Z,91256.41
2022-08-16T17:22:15.538Z,91260.38
2022-08-16T17:24:44.790Z,91259.72
2022-08-16T17:27:18.054Z,91269.69
2022-08-16T17:29:51.406Z,91273.16
2022-08-16T17:32:34.315Z,91269.59
2022-08-16T17:35:18.469Z,91270.66
2022-08-16T17:37:51.831Z,91278.53
2022-08-16T17:40:34.013Z,91286.72
2022-08-16T17:43:14.641Z,91309.31
2022-08-16T17:45:42.699Z,91316.97
2022-08-16T17:48:09.692Z,91301.75
2022-08-16T17:50:38.863Z,91313.28
2022-08-16T17:53:06.675Z,91324.69
2022-08-16T17:55:36.768Z,91315.84
2022-08-16T17:58:14.555Z,91305.56
2022-08-16T18:00:53.313Z,91312.31
2022-08-16T18:04:07.079Z,91290.09
2022-08-16T18:06:25.089Z,91316.69
2022-08-16T18:09:01.732Z,91321.63
2022-08-16T18:11:30.162Z,91318.44
2022-08-16T18:13:59.837Z,91326.59
2022-08-16T18:16:27.067Z,91319.56
2022-08-16T18:18:55.787Z,91335.69
2022-08-16T18:21:41.235Z,91330.06
2022-08-16T18:24:08.559Z,91341.06
2022-08-16T18:26:35.814Z,91327.56
2022-08-16T18:29:02.637Z,91333.47
2022-08-16T18:31:29.631Z,91331.84
2022-08-16T18:33:56.709Z,91331.41
2022-08-16T18:36:24.655Z,91328.19
2022-08-16T18:38:53.102Z,91324.09
2022-08-16T18:41:23.050Z,91326.81
2022-08-16T18:44:04.792Z,91330.88
2022-08-16T18:46:40.596Z,91316.19
2022-08-16T18:49:07.524Z,91335.75
2022-08-16T18:51:36.981Z,91333.00
2022-08-16T18:54:04.839Z,91333.28
2022-08-16T18:56:55.469Z,91330.88
2022-08-16T18:59:18.458Z,91328.97
2022-08-16T19:01:46.746Z,91317.63
2022-08-16T19:04:55.400Z,91310.09
2022-08-16T19:07:01.175Z,91312.22
2022-08-16T19:09:27.892Z,91306.56
2022-08-16T19:11:54.792Z,91325.16
2022-08-16T19:14:24.825Z,91317.13
2022-08-16T19:16:51.639Z,91322.72
2022-08-16T19:19:18.309Z,91316.25
2022-08-16T19:21:45.054Z,91324.44
2022-08-16T19:24:17.766Z,91322.50
2022-08-16T19:26:45.478Z,91312.66
2022-08-16T19:29:12.243Z,91304.53
2022-08-16T19:31:40.499Z,91324.06
2022-08-16T19:34:08.270Z,91326.94
2022-08-16T19:36:37.565Z,91328.72
2022-08-16T19:39:11.198Z,91322.69
2022-08-16T19:41:52.076Z,91331.91
2022-08-16T19:44:22.640Z,91321.91
2022-08-16T19:46:50.013Z,91330.34
2022-08-16T19:49:17.196Z,91322.63
2022-08-16T19:51:45.766Z,91329.72
2022-08-16T19:54:12.489Z,91318.06
2022-08-16T19:56:39.236Z,91324.50
2022-08-16T19:59:40.565Z,91330.31
2022-08-16T20:01:56.659Z,91332.91
2022-08-16T20:04:25.694Z,91332.44
2022-08-16T20:06:53.303Z,91332.69
2022-08-16T20:09:22.156Z,91325.16
2022-08-16T20:11:52.245Z,91321.28
2022-08-16T20:14:25.392Z,91315.03
2022-08-16T20:17:01.472Z,91311.03
2022-08-16T20:19:33.409Z,91308.09
2022-08-16T20:22:42.105Z,91304.13
2022-08-16T20:25:09.740Z,91295.00
2022-08-16T20:27:39.135Z,91294.66
2022-08-16T20:30:08.944Z,91292.28
2022-08-16T20:32:40.426Z,91298.03
2022-08-16T20:35:10.575Z,91295.75
2022-08-16T20:37:38.981Z,91311.91
2022-08-16T20:40:28.336Z,91310.69
2022-08-16T20:43:04.833Z,91320.59
2022-08-16T20:45:33.727Z,91329.19
2022-08-16T20:48:00.445Z,91325.16
2022-08-16T20:50:27.190Z,91329.81
2022-08-16T20:52:57.321Z,91333.38
2022-08-16T20:55:25.441Z,91327.34
2022-08-16T20:57:55.772Z,91337.47
2022-08-16T21:00:23.027Z,91337.69
2022-08-16T21:02:50.331Z,91342.66
2022-08-16T21:05:25.870Z,91340.00
2022-08-16T21:08:00.570Z,91336.03
2022-08-16T21:10:29.959Z,91335.56
2022-08-16T21:12:59.824Z,91339.31
2022-08-16T21:15:27.678Z,91340.66
2022-08-16T21:17:55.109Z,91341.97
2022-08-16T21:20:26.760Z,91338.69
2022-08-16T21:23:01.309Z,91335.44
2022-08-16T21:25:30.494Z,91338.50
2022-08-16T21:28:39.221Z,91341.53
2022-08-16T21:30:50.238Z,91321.63
2022-08-16T21:33:19.449Z,91331.47
2022-08-16T21:35:48.332Z,91332.13
2022-08-16T21:38:29.655Z,91320.31
2022-08-16T21:40:58.420Z,91324.63
2022-08-16T21:43:26.690Z,91337.06
2022-08-16T21:45:55.790Z,91329.53
2022-08-16T21:48:34.346Z,91338.03
2022-08-16T21:51:10.769Z,91331.69
2022-08-16T21:53:38.369Z,91342.03
2022-08-16T21:56:06.641Z,91336.66
2022-08-16T21:58:37.625Z,91335.53
2022-08-16T22:01:05.128Z,91323.72
2022-08-16T22:03:35.542Z,91321.06
2022-08-16T22:06:13.153Z,91326.59
2022-08-16T22:08:48.921Z,91306.56
2022-08-16T22:11:24.780Z,91310.34
2022-08-16T22:13:58.512Z,91312.16
2022-08-16T22:16:29.690Z,91303.91
2022-08-16T22:18:56.418Z,91309.03
2022-08-16T22:21:23.325Z,91316.97
2022-08-16T22:23:57.267Z,91309.22
2022-08-16T22:26:32.478Z,91313.81
2022-08-16T22:29:06.476Z,91308.47
2022-08-16T22:31:34.451Z,91316.34
2022-08-16T22:34:04.457Z,91315.09
2022-08-16T22:36:33.407Z,91307.34
2022-08-16T22:39:05.554Z,91311.09
2022-08-16T22:41:35.467Z,91307.63
2022-08-16T22:44:04.315Z,91292.88
2022-08-16T22:46:31.767Z,91291.66
2022-08-16T22:48:58.757Z,91294.97
2022-08-16T22:51:28.438Z,91292.66
2022-08-16T22:53:56.147Z,91266.84
2022-08-16T22:56:26.219Z,91286.19
2022-08-16T22:58:53.265Z,91287.44
2022-08-16T23:01:22.284Z,91275.63
2022-08-16T23:03:49.147Z,91283.41
2022-08-16T23:06:17.107Z,91271.06
2022-08-16T23:08:44.136Z,91268.75
2022-08-16T23:11:21.428Z,91269.56
2022-08-16T23:13:53.709Z,91257.91
2022-08-16T23:16:32.262Z,91270.41
2022-08-16T23:19:03.333Z,91258.97
2022-08-16T23:21:30.224Z,91260.50
2022-08-16T23:23:56.924Z,91251.25
2022-08-16T23:26:44.874Z,91247.47
2022-08-16T23:29:16.043Z,91247.41
2022-08-16T23:31:50.570Z,91241.75
2022-08-16T23:34:21.156Z,91234.56
2022-08-16T23:36:47.826Z,91234.47
2022-08-16T23:39:14.484Z,91229.97
2022-08-16T23:41:41.252Z,91225.34
2022-08-16T23:44:57.469Z,91227.75
2022-08-16T23:46:55.633Z,91221.47
2022-08-16T23:50:01.988Z,91230.41
2022-08-16T23:52:11.508Z,91225.88
2022-08-16T23:54:38.415Z,91224.34
2022-08-16T23:57:05.350Z,91231.53
2022-08-16T23:59:52.185Z,91227.59
